Tiempo atmosférico en la estación meteorológica de Sopeira, Huesca (760 m.)



Fecha
DESCASC
Temp. máxima en grados centígrados (hora)
DESCASC
Temp. mínima en grados centígrados (hora)
DESCASC
Temp. media en grados centígrados
DESCASC
Racha de viento máxima en m/sg (hora)
DESCASC
Velocidad máxima media en intervalos de 10 minutos(hora)
DESCASC
Precipitaciones diarias en mm
DESCASC
Precipitaciones de 00:00 a 06:00 en mm
DESCASC
Precipitaciones de 06:00 a 12:00 en mm
DESCASC
Precipitaciones de 12:00 a 18:00 en mm
DESCASC
Precipitaciones de 18:00 a 24:00 en mm
DESCASC
25-04-2019 14.6 (14:20) 5.7 (23:50) 10.2 18.61 (18:20) 8.06 (15:20) 13.8 3.8 8 1.8 0.2
24-04-2019 10.5 (13:40) 5.7 (09:50) 8.1 11.94 (23:30) 6.39 (20:40) 4 2 0.4 0.6 1
23-04-2019 15.8 (16:50) 8.1 (23:59) 12 15.56 (20:10) 5.83 (19:00) 16.6 0.4 3 4.2 9
22-04-2019 16.3 (15:40) 7.8 (00:00) 12 10.28 (07:00) 7.22 (05:00) 4.4 0 4.4 0 0
21-04-2019 13.4 (15:30) 7.5 (00:00) 10.4 9.72 (04:20) 6.94 (05:10) 2.6 2.6 0 0 0
20-04-2019 19.9 (13:40) 6.4 (00:00) 13.1 10.83 (04:20) 7.78 (08:10) 0 0 0 0 0
19-04-2019 19.1 (17:30) 9.2 (00:00) 14.2 12.5 (09:40) 8.61 (11:00) 0 0 0 0 0
18-04-2019 19.5 (15:10) 8.6 (00:00) 14.1 11.67 (14:10) 7.78 (09:10) 0 0 0 0 0
17-04-2019 19.9 (16:40) 7.5 (00:00) 13.7 7.5 (07:40) 5 (07:50) 0 0 0 0 0
16-04-2019 16.9 (16:20) 7 (00:00) 11.9 6.39 (21:00) 3.89 (14:50) 4.6 4.4 0.2 0 0
15-04-2019 19.2 (15:40) 7.3 (00:00) 13.3 13.06 (04:10) 9.17 (05:40) 1.6 0 0 0 1.6
14-04-2019 22 (15:50) 3.2 (00:00) 12.6 13.33 (07:00) 10 (01:40) 0 0 0 0 0
13-04-2019 20 (14:30) 1.4 (00:00) 10.7 11.67 (06:40) 9.17 (23:30) 0 0 0 0 0
12-04-2019 17.1 (16:40) 4.4 (00:00) 10.8 15.83 (14:10) 7.22 (13:20) 0 0 0 0 0
11-04-2019 13.3 (16:40) 6.9 (00:00) 10.1 15 (12:10) 6.39 (04:00) 0 0 0 0 0
10-04-2019 15.5 (14:50) 2 (00:00) 8.8 13.61 (15:10) 8.33 (08:20) 0.2 0.2 0 0 0
09-04-2019 14.6 (13:50) 4.6 (00:00) 9.6 8.89 (02:50) 6.39 (02:50) 18.4 0 0 13.2 5.2
08-04-2019 16.3 (15:30) 2.9 (00:00) 9.6 10.28 (06:40) 7.5 (03:50) 0 0 0 0 0
07-04-2019 13 (15:20) 2.6 (00:00) 7.8 9.72 (18:00) 5.28 (23:59) 1 1 0 0 0
06-04-2019 8.6 (17:10) 2.5 (00:00) 5.6 14.72 (18:00) 7.22 (18:00) 17 9 4.4 0.8 2.8
05-04-2019 10.4 (16:20) 2.8 (00:00) 6.6 13.61 (20:20) 8.33 (03:30) 3.4 0 0.4 0 3
04-04-2019 12.3 (17:30) -1.4 (-00:0) 5.5 9.72 (17:40) 6.39 (23:10) 0 0 0 0 0
03-04-2019 9.5 (15:50) 4.4 (00:00) 7 10 (19:30) 5.83 (01:00) 2 0.2 1 0.8 0
02-04-2019 17.2 (14:10) 7.5 (00:00) 12.4 10.83 (15:00) 6.11 (05:10) 0 0 0 0 0
01-04-2019 17.6 (15:40) 7.6 (00:00) 12.6 8.89 (06:10) 6.67 (05:50) 0 0 0 0 0
31-03-2019 15.2 (14:40) 2.1 (00:00) 8.6 14.44 (08:00) 10.28 (08:00) 0 0 0 0 0
30-03-2019 16.9 (14:10) 1.7 (00:00) 9.3 11.11 (07:10) 8.33 (06:30) 0 0 0 0 0
29-03-2019 14.9 (14:20) 4 (00:00) 9.4 10.28 (06:40) 7.5 (07:30) 0 0 0 0 0
28-03-2019 17.4 (14:10) 1.4 (00:00) 9.4 11.94 (08:10) 8.89 (07:30) 0 0 0 0 0
27-03-2019 18.7 (15:10) 0.5 (00:00) 9.6 11.39 (07:30) 8.06 (06:00) 0 0 0 0 0

Gráficas

Temp. máximas Temp. mínimas Temp. medias Precipitaciones Rachas de viento máximas Velocidades máximas media en intervalos de 10 minutos

Datos horarios

Fecha y hora oficial Temperatura (ºC) Velocidad del viento (km/h) Dirección del viento Racha (km/h) Dirección de racha Precipitación (mm) Presión (hPa) Tendencia (hPa) Humedad (%)
2019-04-25 23:00:00 6.3 19 Noroeste 26 Noroeste 0 -- -- 84
2019-04-25 22:00:00 7.2 17 Noroeste 25 Noroeste 0 -- -- 79
2019-04-25 21:00:00 8.4 10 Noroeste 18 Noroeste 0 -- -- 74
2019-04-25 20:00:00 9.4 12 Noroeste 22 Noroeste 0 -- -- 67
2019-04-25 19:00:00 10.1 3 Sur 67 Oeste 0.2 -- -- 63
2019-04-25 18:00:00 10.2 8 Noroeste 27 Oeste 0 -- -- 69
2019-04-25 17:00:00 9.6 12 Oeste 49 Oeste 1.8 -- -- 68
2019-04-25 16:00:00 13.7 22 Sur 51 Sur 0 -- -- 49
2019-04-25 15:00:00 14.2 24 Sur 36 Sur 0 -- -- 46
2019-04-25 14:00:00 14.2 13 Sur 27 Sudoeste 0 -- -- 57
2019-04-25 13:00:00 12.8 12 Sur 23 Sur 0 -- -- 64
2019-04-25 12:00:00 11.9 11 Sur 22 Sur 0 -- -- 73
2019-04-25 11:00:00 10.5 10 Este 23 Sur 0 -- -- 86
2019-04-25 10:00:00 9.8 7 Sudoeste 15 Sudeste 0 -- -- 85
2019-04-25 09:00:00 9.2 6 Sur 28 Este 0.8 -- -- 86
2019-04-25 08:00:00 9.3 13 Sudeste 42 Sur 6 -- -- 84
2019-04-25 07:00:00 10.9 17 Sur 48 Sur 1.2 -- -- 82
2019-04-25 06:00:00 10.7 19 Sur 55 Sudoeste 2 -- -- 82
2019-04-25 05:00:00 11.7 24 Sudoeste 56 Sudoeste 0 -- -- 73
2019-04-25 04:00:00 11.2 15 Sur 36 Sur 0.2 -- -- 74
2019-04-25 03:00:00 10.2 6 Sudeste 29 Este 0.2 -- -- 80
2019-04-25 02:00:00 10.3 13 Sur 41 Sudoeste 0.4 -- -- 77
2019-04-25 01:00:00 9.9 20 Sur 41 Sudoeste 1 -- -- 75
2019-04-25 00:00:00 9.5 16 Sudoeste 43 Sur 0.6 -- -- 76
2019-04-24 23:00:00 9.6 22 Sudoeste 39 Sudoeste 0.4 -- -- 75
2019-04-24 22:00:00 7.2 6 Sudoeste 27 Noroeste 0 -- -- 84
2019-04-24 21:00:00 6.9 21 Noroeste 32 Noroeste 0 -- -- 82
2019-04-24 20:00:00 7.1 20 Noroeste 30 Noroeste 0 -- -- 80
2019-04-24 19:00:00 7.5 22 Norte 29 Norte 0 -- -- 80
2019-04-24 18:00:00 7.3 18 Norte 26 Noroeste 0 -- -- 80
2019-04-24 17:00:00 7.5 11 Noroeste 18 Noroeste 0.2 -- -- 78
2019-04-24 16:00:00 7.5 3 Norte 22 Sur 0.2 -- -- 77
2019-04-24 15:00:00 8 9 Sur 36 Sur 0.2 -- -- 72
2019-04-24 14:00:00 9.9 16 Sur 27 Sur 0 -- -- 60
2019-04-24 13:00:00 8.4 10 Sudoeste 27 Sur 0 -- -- 72
2019-04-24 12:00:00 7.3 5 Sur 16 Nordeste 0 -- -- 86
2019-04-24 11:00:00 6.1 8 Este 23 Sur 0.2 -- -- 89
2019-04-24 10:00:00 5.7 7 Sur 28 Sur 0.2 -- -- 90
2019-04-24 09:00:00 6.2 13 Sur 23 Sur 0 -- -- 92
2019-04-24 08:00:00 6.3 4 Sur 9 Sudoeste 0 -- -- 94
2019-04-24 07:00:00 6.3 5 Sur 14 Sudoeste 0 -- -- 93
2019-04-24 06:00:00 6.4 0 Calma 9 Sudoeste 0 -- -- 92
2019-04-24 05:00:00 6.6 3 Sur 8 Sudoeste 0 -- -- 90
2019-04-24 04:00:00 6.8 0 Calma 13 Noroeste 0 -- -- 88
2019-04-24 03:00:00 6.8 2 Nordeste 11 Oeste 0.2 -- -- 88
2019-04-24 02:00:00 7.1 2 Sudoeste 24 Sur 0.2 -- -- 86
2019-04-24 01:00:00 7.8 4 Sudeste 26 Noroeste 1.6 -- -- 87
2019-04-24 00:00:00 8.1 17 Norte 30 Norte 0 -- -- 81
2019-04-23 23:00:00 8.7 18 Norte 31 Noroeste 0 -- -- 78
2019-04-23 22:00:00 8.9 16 Noroeste 25 Noroeste 1.6 -- -- 86
2019-04-23 21:00:00 9.1 5 Sur 56 Sur 4.6 -- -- 85
2019-04-23 20:00:00 12 7 Noroeste 20 Norte 0.6 -- -- 79
2019-04-23 19:00:00 12.6 21 Sur 50 Sur 2.2 -- -- 75
2019-04-23 18:00:00 14.5 6 Sur 16 Sur 0 -- -- 63
2019-04-23 17:00:00 15.8 3 Sur 13 Sudoeste 0 -- -- 56
2019-04-23 16:00:00 15.3 4 Sudoeste 10 Sudoeste 0 -- -- 65
2019-04-23 15:00:00 13 5 Sudoeste 10 Sur 0 -- -- 78
2019-04-23 14:00:00 10.8 0 Calma 9 Sudoeste 0.4 -- -- 93
2019-04-23 13:00:00 10.1 2 Sudeste 13 Este 3.8 -- -- 94
2019-04-23 12:00:00 10.1 3 Sudeste 10 Sudoeste 1 -- -- 93
2019-04-23 11:00:00 10.1 0 Calma 17 Noroeste 0.4 -- -- 93
2019-04-23 10:00:00 9.8 4 Norte 14 Noroeste 1.2 -- -- 92
2019-04-23 09:00:00 9.8 7 Oeste 22 Noroeste 0.2 -- -- 89
2019-04-23 08:00:00 9.7 14 Noroeste 22 Noroeste 0 -- -- 90
2019-04-23 07:00:00 9.6 14 Noroeste 20 Noroeste 0.2 -- -- 90
2019-04-23 06:00:00 9.8 2 Sur 4 Sudoeste 0.4 -- -- 87
2019-04-23 05:00:00 10.1 0 Calma 6 Sudoeste 0 -- -- 84
2019-04-23 04:00:00 10.6 0 Calma 3 Este 0 -- -- 79
2019-04-23 03:00:00 10.9 3 Sudoeste 13 Norte 0 -- -- 77
2019-04-23 02:00:00 11.3 9 Noroeste 13 Noroeste 0 -- -- 75
2019-04-23 01:00:00 11.2 0 Calma 13 Sudoeste 0 -- -- 78
2019-04-23 00:00:00 11.7 8 Sur 19 Sudoeste 0 -- -- 75
2019-04-22 23:00:00 11.8 4 Noroeste 9 Noroeste 0 -- -- 76
2019-04-22 22:00:00 12 7 Sur 14 Sur 0 -- -- 75
2019-04-22 21:00:00 12.8 8 Sudoeste 18 Sudoeste 0 -- -- 71
2019-04-22 20:00:00 13.4 6 Sur 21 Sur 0 -- -- 68
2019-04-22 19:00:00 14.3 14 Sur 24 Sur 0 -- -- 63
2019-04-22 18:00:00 15.7 10 Sur 17 Sur 0 -- -- 57
2019-04-22 17:00:00 15.5 7 Sudoeste 18 Sudoeste 0 -- -- 57
2019-04-22 16:00:00 16 11 Sur 21 Sur 0 -- -- 58
2019-04-22 15:00:00 15.6 6 Sur 14 Sudoeste 0 -- -- 67
2019-04-22 14:00:00 14.7 7 Sudeste 13 Sur 0 -- -- 71
2019-04-22 13:00:00 11.6 5 Este 15 Sudoeste 0 -- -- 87
2019-04-22 12:00:00 9.6 4 Noroeste 26 Noroeste 3 -- -- 86
2019-04-22 11:00:00 9.6 9 Noroeste 26 Noroeste 0 -- -- 82
2019-04-22 10:00:00 8.9 14 Noroeste 24 Noroeste 0 -- -- 85
2019-04-22 09:00:00 8 9 Noroeste 30 Noroeste 0.4 -- -- 88
2019-04-22 08:00:00 7.8 12 Noroeste 35 Noroeste 1 -- -- 86
2019-04-22 07:00:00 8.2 26 Noroeste 37 Noroeste 0 -- -- 81
2019-04-22 06:00:00 8 23 Noroeste 34 Noroeste 0 -- -- 82
2019-04-22 05:00:00 8.2 26 Noroeste 33 Noroeste 0 -- -- 82
2019-04-22 04:00:00 8.3 23 Noroeste 30 Noroeste 0 -- -- 82
2019-04-22 03:00:00 8.5 22 Noroeste 31 Noroeste 0 -- -- 82
2019-04-22 02:00:00 9.4 22 Noroeste 33 Noroeste 0 -- -- 80
2019-04-22 01:00:00 10.3 19 Norte 29 Noroeste 0 -- -- 77
2019-04-22 00:00:00 10.7 18 Noroeste 24 Noroeste 0 -- -- 77
2019-04-21 23:00:00 11 9 Noroeste 15 Noroeste 0 -- -- 76
2019-04-21 22:00:00 11.1 0 Calma 5 Sudeste 0 -- -- 76
2019-04-21 21:00:00 11.8 2 Sudeste 4 Sudeste 0 -- -- 74
2019-04-21 20:00:00 12.3 2 Sur 6 Sur 0 -- -- 67
2019-04-21 19:00:00 12.7 3 Sur 7 Sudoeste 0 -- -- 67
2019-04-21 18:00:00 12.8 4 Sudeste 9 Sudoeste 0 -- -- 66
2019-04-21 17:00:00 12.4 6 Sur 16 Sur 0 -- -- 64
2019-04-21 16:00:00 12.5 14 Sur 18 Sudoeste 0 -- -- 63
2019-04-21 15:00:00 13.1 4 Sur 8 Sudoeste 0 -- -- 70
2019-04-21 14:00:00 11.5 8 Sur 14 Sur 0 -- -- 76
2019-04-21 13:00:00 11.3 6 Norte 24 Noroeste 0 -- -- 72
2019-04-21 12:00:00 9.8 18 Noroeste 31 Noroeste 0 -- -- 75
2019-04-21 11:00:00 8.9 19 Norte 33 Noroeste 0 -- -- 77
2019-04-21 10:00:00 8 15 Noroeste 30 Noroeste 0 -- -- 84
2019-04-21 09:00:00 7.8 14 Noroeste 24 Noroeste 0 -- -- 84
2019-04-21 08:00:00 7.7 13 Noroeste 25 Noroeste 0 -- -- 86
2019-04-21 07:00:00 7.8 17 Noroeste 31 Noroeste 0 -- -- 83
2019-04-21 06:00:00 7.7 17 Noroeste 35 Noroeste 0 -- -- 85
2019-04-21 05:00:00 7.7 21 Norte 35 Noroeste 0.6 -- -- 84
2019-04-21 04:00:00 7.7 19 Norte 27 Noroeste 0.2 -- -- 89
2019-04-21 03:00:00 7.5 0 Calma 10 Sur 0.8 -- -- 91
2019-04-21 02:00:00 8 4 Sudeste 11 Sur 0.8 -- -- 88
2019-04-21 01:00:00 8.6 4 Sur 19 Sudoeste 0.2 -- -- 87
2019-04-21 00:00:00 9.5 10 Sur 39 Sudeste 0 -- -- 81
2019-04-20 23:00:00 11.7 17 Este 30 Nordeste 0 -- -- 65
2019-04-20 22:00:00 12.7 5 Sur 21 Noroeste 0 -- -- 63
2019-04-20 21:00:00 13.6 9 Noroeste 21 Noroeste 0 -- -- 61
2019-04-20 20:00:00 14.1 13 Noroeste 30 Noroeste 0 -- -- 58
2019-04-20 19:00:00 15.4 10 Noroeste 21 Noroeste 0 -- -- 51
2019-04-20 18:00:00 16.8 13 Sur 19 Sur 0 -- -- 43
2019-04-20 17:00:00 17.9 12 Sur 24 Sur 0 -- -- 40
2019-04-20 16:00:00 18.5 7 Este 24 Sur 0 -- -- 39
2019-04-20 15:00:00 18.5 15 Sur 24 Sudoeste 0 -- -- 36
2019-04-20 14:00:00 18.7 16 Sur 23 Sur 0 -- -- 35
2019-04-20 13:00:00 19.4 10 Sur 16 Sur 0 -- -- 40
2019-04-20 12:00:00 17.6 12 Sur 17 Sur 0 -- -- 40
2019-04-20 11:00:00 12.9 10 Noroeste 27 Noroeste 0 -- -- 57
2019-04-20 10:00:00 9.7 13 Norte 35 Noroeste 0 -- -- 69
2019-04-20 09:00:00 7.4 25 Noroeste 37 Noroeste 0 -- -- 74
2019-04-20 08:00:00 6.5 24 Noroeste 38 Noroeste 0 -- -- 78
2019-04-20 07:00:00 6.6 26 Noroeste 35 Noroeste 0 -- -- 78
2019-04-20 06:00:00 7.3 20 Noroeste 37 Noroeste 0 -- -- 75
2019-04-20 05:00:00 7.7 21 Noroeste 39 Noroeste 0 -- -- 73
2019-04-20 04:00:00 8.3 21 Noroeste 33 Noroeste 0 -- -- 71
2019-04-20 03:00:00 9 19 Noroeste 32 Noroeste 0 -- -- 68
2019-04-20 02:00:00 9.8 19 Noroeste 30 Noroeste 0 -- -- 65
2019-04-20 01:00:00 10.6 17 Noroeste 26 Noroeste 0 -- -- 62
2019-04-20 00:00:00 11.3 12 Noroeste 18 Noroeste 0 -- -- 60
2019-04-19 23:00:00 12.5 10 Noroeste 16 Noroeste 0 -- -- 54
2019-04-19 22:00:00 13.9 5 Noroeste 13 Este 0 -- -- 47
2019-04-19 21:00:00 15.3 6 Este 20 Sudoeste 0 -- -- 42
2019-04-19 20:00:00 17.2 12 Sudoeste 23 Sudoeste 0 -- -- 38
2019-04-19 19:00:00 18.6 8 Sur 15 Sur 0 -- -- 36
2019-04-19 18:00:00 18.9 8 Sur 15 Sur 0 -- -- 38
2019-04-19 17:00:00 18.9 8 Sur 11 Sudoeste 0 -- -- 36
2019-04-19 16:00:00 18.1 3 Sudeste 10 Sudoeste 0 -- -- 39
2019-04-19 15:00:00 16.8 6 Este 14 Nordeste 0 -- -- 43
2019-04-19 14:00:00 16.1 5 Sur 10 Sudeste 0 -- -- 45
2019-04-19 13:00:00 14.5 6 Nordeste 32 Noroeste 0 -- -- 52
2019-04-19 12:00:00 12.8 17 Noroeste 39 Noroeste 0 -- -- 52
2019-04-19 11:00:00 11.4 31 Noroeste 44 Noroeste 0 -- -- 57
2019-04-19 10:00:00 10.6 28 Noroeste 45 Noroeste 0 -- -- 58
2019-04-19 09:00:00 9.8 15 Noroeste 31 Noroeste 0 -- -- 61
2019-04-19 08:00:00 9.4 17 Noroeste 29 Noroeste 0 -- -- 63
2019-04-19 07:00:00 9.8 14 Noroeste 32 Noroeste 0 -- -- 62
2019-04-19 06:00:00 10.4 16 Noroeste 35 Noroeste 0 -- -- 60
2019-04-19 05:00:00 11.1 17 Noroeste 26 Noroeste 0 -- -- 53
2019-04-19 04:00:00 11.6 2 Sur 18 Noroeste 0 -- -- 54
2019-04-19 03:00:00 12.3 0 Calma 18 Noroeste 0 -- -- 52
2019-04-19 02:00:00 12.4 4 Sudoeste 14 Noroeste 0 -- -- 49
2019-04-19 01:00:00 12.5 6 Noroeste 18 Noroeste 0 -- -- 59
2019-04-19 00:00:00 12.6 3 Norte 14 Noroeste 0 -- -- 63
2019-04-18 23:00:00 12.9 7 Sur 21 Noroeste 0 -- -- 60
2019-04-18 22:00:00 13.8 7 Noroeste 14 Noroeste 0 -- -- 57
2019-04-18 21:00:00 14.3 3 Sur 9 Sudeste 0 -- -- 57
2019-04-18 20:00:00 14.9 7 Sudeste 14 Sudoeste 0 -- -- 55
2019-04-18 19:00:00 15.8 7 Sur 19 Sudoeste 0 -- -- 49
2019-04-18 18:00:00 16.8 4 Oeste 31 Sudoeste 0 -- -- 46
2019-04-18 17:00:00 17.6 8 Sur 22 Sudoeste 0 -- -- 47
2019-04-18 16:00:00 18.2 7 Sur 32 Sudoeste 0 -- -- 48
2019-04-18 15:00:00 18.8 11 Norte 42 Norte 0 -- -- 41
2019-04-18 14:00:00 15.7 27 Norte 40 Norte 0 -- -- 50
2019-04-18 13:00:00 15.6 16 Norte 32 Noroeste 0 -- -- 50
2019-04-18 12:00:00 15.6 4 Este 14 Sudoeste 0 -- -- 54
2019-04-18 11:00:00 13.8 4 Sudeste 18 Noroeste 0 -- -- 70
2019-04-18 10:00:00 10.3 10 Norte 36 Noroeste 0 -- -- 78
2019-04-18 09:00:00 9 24 Noroeste 32 Noroeste 0 -- -- 82
2019-04-18 08:00:00 8.6 18 Noroeste 33 Noroeste 0 -- -- 83
2019-04-18 07:00:00 8.7 21 Noroeste 30 Noroeste 0 -- -- 83
2019-04-18 06:00:00 8.7 20 Noroeste 28 Noroeste 0 -- -- 85
2019-04-18 05:00:00 9.4 7 Noroeste 19 Noroeste 0 -- -- 82
2019-04-18 04:00:00 10.2 15 Noroeste 31 Noroeste 0 -- -- 79
2019-04-18 03:00:00 10.9 14 Noroeste 24 Noroeste 0 -- -- 76
2019-04-18 02:00:00 11.7 6 Noroeste 33 Noroeste 0 -- -- 72
2019-04-18 01:00:00 12.1 18 Noroeste 26 Noroeste 0 -- -- 71
2019-04-18 00:00:00 12.3 7 Noroeste 15 Noroeste 0 -- -- 71
2019-04-17 23:00:00 13.1 0 Calma 9 Oeste 0 -- -- 68
2019-04-17 22:00:00 13.9 5 Este 8 Este 0 -- -- 65
2019-04-17 21:00:00 15.5 3 Sudeste 11 Sudoeste 0 -- -- 59
2019-04-17 20:00:00 17.6 8 Sudoeste 14 Sudoeste 0 -- -- 49
2019-04-17 19:00:00 18.9 7 Sur 18 Sur 0 -- -- 44
2019-04-17 18:00:00 19.8 5 Oeste 15 Sur 0 -- -- 42
2019-04-17 17:00:00 19.7 7 Sur 15 Sudoeste 0 -- -- 43
2019-04-17 16:00:00 19.8 9 Sur 16 Sur 0 -- -- 45
2019-04-17 15:00:00 17.9 9 Sur 18 Sudoeste 0 -- -- 47
2019-04-17 14:00:00 17.1 6 Sudoeste 17 Sur 0 -- -- 48
2019-04-17 13:00:00 16.1 10 Sur 15 Sur 0 -- -- 53
2019-04-17 12:00:00 16.4 10 Sur 15 Sur 0 -- -- 54
2019-04-17 11:00:00 16 6 Sudeste 10 Noroeste 0 -- -- 57
2019-04-17 10:00:00 12.4 3 Sudeste 23 Noroeste 0 -- -- 74
2019-04-17 09:00:00 9 12 Norte 21 Noroeste 0 -- -- 87
2019-04-17 08:00:00 8.7 16 Noroeste 27 Noroeste 0 -- -- 84
2019-04-17 07:00:00 8.1 3 Sur 8 Sudeste 0 -- -- 86
2019-04-17 06:00:00 9.4 8 Noroeste 15 Noroeste 0 -- -- 83
2019-04-17 05:00:00 8.7 0 Calma 4 Sur 0 -- -- 84
2019-04-17 04:00:00 8.9 0 Calma 14 Oeste 0 -- -- 82
2019-04-17 03:00:00 9.8 10 Noroeste 14 Noroeste 0 -- -- 79
2019-04-17 02:00:00 9.6 3 Oeste 8 Noroeste 0 -- -- 80
2019-04-17 01:00:00 9.9 0 Calma 7 Este 0 -- -- 77
2019-04-17 00:00:00 11.4 4 Sudeste 12 Sur 0 -- -- 72
2019-04-16 23:00:00 12.7 8 Sudoeste 14 Sur 0 -- -- 67
2019-04-16 22:00:00 13.7 6 Sur 22 Sur 0 -- -- 63
2019-04-16 21:00:00 14.2 12 Sur 23 Sur 0 -- -- 60
2019-04-16 20:00:00 15 5 Sudeste 15 Sur 0 -- -- 58
2019-04-16 19:00:00 15.4 9 Sur 20 Sur 0 -- -- 55
2019-04-16 18:00:00 16.7 11 Sur 21 Sudoeste 0 -- -- 50
2019-04-16 17:00:00 16.4 8 Sudoeste 19 Sur 0 -- -- 51
2019-04-16 16:00:00 15.9 8 Sudeste 19 Este 0 -- -- 57
2019-04-16 15:00:00 15.2 10 Sur 23 Sur 0 -- -- 61
2019-04-16 14:00:00 13.9 10 Sur 18 Sur 0 -- -- 69
2019-04-16 13:00:00 12.9 8 Sudeste 16 Sur 0 -- -- 76
2019-04-16 12:00:00 10.8 6 Sudoeste 11 Sudoeste 0 -- -- 81
2019-04-16 11:00:00 9.5 5 Sudeste 10 Nordeste 0 -- -- 90
2019-04-16 10:00:00 9 3 Sur 6 Sur 0 -- -- 95
2019-04-16 09:00:00 7.7 0 Calma 5 Sur 0.2 -- -- 95
2019-04-16 08:00:00 7.4 6 Sur 9 Sur 0 -- -- 93
2019-04-16 07:00:00 7.3 6 Sudeste 12 Sudoeste 0 -- -- 93
2019-04-16 06:00:00 7.1 4 Sur 17 Sudoeste 0 -- -- 93
2019-04-16 05:00:00 7.5 4 Sudoeste 8 Sur 0 -- -- 92
2019-04-16 04:00:00 7.6 5 Sudeste 9 Sudoeste 0 -- -- 91
2019-04-16 03:00:00 7.7 2 Sur 9 Sudoeste 0 -- -- 90
2019-04-16 02:00:00 8.2 3 Sur 22 Sudoeste 0 -- -- 89
2019-04-16 01:00:00 8.8 12 Oeste 23 Sur 4.4 -- -- 87
2019-04-16 00:00:00 10.4 12 Sudeste 27 Sudoeste 0.4 -- -- 79
2019-04-15 23:00:00 12.3 12 Noroeste 46 Oeste 0.2 -- -- 72
2019-04-15 22:00:00 11.1 12 Nordeste 35 Sudoeste 1 -- -- 72
2019-04-15 21:00:00 14 10 Sudoeste 22 Sudoeste 0 -- -- 54
2019-04-15 20:00:00 15.2 14 Sudoeste 26 Sur 0 -- -- 53
2019-04-15 19:00:00 16.9 12 Sur 23 Sur 0 -- -- 52
2019-04-15 18:00:00 18.6 11 Sur 26 Sur 0 -- -- 49
2019-04-15 17:00:00 19.1 10 Sur 21 Sur 0 -- -- 49
2019-04-15 16:00:00 18.9 10 Sur 23 Sudoeste 0 -- -- 50
2019-04-15 15:00:00 19 11 Sur 26 Sudoeste 0 -- -- 49
2019-04-15 14:00:00 18.7 14 Sur 24 Sudoeste 0 -- -- 51
2019-04-15 13:00:00 17.5 17 Sur 23 Sur 0 -- -- 53
2019-04-15 12:00:00 16.7 12 Sur 15 Sur 0 -- -- 55
2019-04-15 11:00:00 15.4 6 Sudeste 22 Noroeste 0 -- -- 56
2019-04-15 10:00:00 10.3 17 Noroeste 28 Noroeste 0 -- -- 67
2019-04-15 09:00:00 8.1 11 Norte 30 Noroeste 0 -- -- 75
2019-04-15 08:00:00 7.5 14 Norte 38 Noroeste 0 -- -- 77
2019-04-15 07:00:00 7.7 19 Noroeste 33 Oeste 0 -- -- 76
2019-04-15 06:00:00 8.3 28 Noroeste 42 Noroeste 0 -- -- 74
2019-04-15 05:00:00 8.9 30 Noroeste 47 Noroeste 0 -- -- 72
2019-04-15 04:00:00 9.8 23 Noroeste 39 Noroeste 0 -- -- 68
2019-04-15 03:00:00 10.6 25 Noroeste 41 Noroeste 0 -- -- 66
2019-04-15 02:00:00 11.6 28 Noroeste 41 Noroeste 0 -- -- 63
2019-04-15 01:00:00 11.8 20 Noroeste 33 Noroeste 0 -- -- 63
2019-04-15 00:00:00 12.7 23 Noroeste 33 Noroeste 0 -- -- 60
2019-04-14 23:00:00 14 25 Noroeste 35 Noroeste 0 -- -- 56
2019-04-14 22:00:00 16.2 21 Norte 32 Noroeste 0 -- -- 48
2019-04-14 21:00:00 17.6 11 Norte 20 Noroeste 0 -- -- 45
2019-04-14 20:00:00 18.6 8 Noroeste 27 Noroeste 0 -- -- 43
2019-04-14 19:00:00 20 8 Sudoeste 20 Noroeste 0 -- -- 41
2019-04-14 18:00:00 20.4 12 Noroeste 24 Noroeste 0 -- -- 39
2019-04-14 17:00:00 21 4 Nordeste 12 Sudoeste 0 -- -- 39
2019-04-14 16:00:00 21.5 8 Sur 21 Este 0 -- -- 34
2019-04-14 15:00:00 21.2 10 Sur 30 Sudoeste 0 -- -- 33
2019-04-14 14:00:00 19.7 5 Sudeste 18 Sur 0 -- -- 30
2019-04-14 13:00:00 18.9 6 Sudeste 12 Este 0 -- -- 28
2019-04-14 12:00:00 17.5 8 Sur 15 Sur 0 -- -- 24
2019-04-14 11:00:00 13.3 4 Sudeste 22 Noroeste 0 -- -- 34
2019-04-14 10:00:00 7.6 19 Noroeste 39 Noroeste 0 -- -- 40
2019-04-14 09:00:00 4.6 26 Noroeste 46 Noroeste 0 -- -- 51
2019-04-14 08:00:00 3.5 31 Noroeste 46 Noroeste 0 -- -- 50
2019-04-14 07:00:00 3.6 35 Noroeste 48 Noroeste 0 -- -- 49
2019-04-14 06:00:00 3.6 31 Noroeste 48 Noroeste 0 -- -- 50
2019-04-14 05:00:00 4.1 32 Noroeste 47 Noroeste 0 -- -- 48
2019-04-14 04:00:00 4.8 32 Noroeste 44 Noroeste 0 -- -- 47
2019-04-14 03:00:00 5.7 28 Noroeste 44 Noroeste 0 -- -- 46
2019-04-14 02:00:00 6.7 30 Noroeste 45 Noroeste 0 -- -- 43
2019-04-14 01:00:00 8 34 Noroeste 44 Noroeste 0 -- -- 39
2019-04-14 00:00:00 9.5 32 Noroeste 42 Noroeste 0 -- -- 37
2019-04-13 23:00:00 11 27 Noroeste 35 Noroeste 0 -- -- 34
2019-04-13 22:00:00 12.7 18 Noroeste 24 Noroeste 0 -- -- 36
2019-04-13 21:00:00 14.7 9 Noroeste 14 Noroeste 0 -- -- 30
2019-04-13 20:00:00 16.1 6 Sudeste 27 Sur 0 -- -- 27
2019-04-13 19:00:00 17.5 12 Sur 32 Sudoeste 0 -- -- 24
2019-04-13 18:00:00 18.6 16 Sur 36 Sur 0 -- -- 23
2019-04-13 17:00:00 19.2 9 Sur 33 Sur 0 -- -- 23
2019-04-13 16:00:00 19.8 16 Sur 33 Sudoeste 0 -- -- 20
2019-04-13 15:00:00 20 9 Sur 22 Sudoeste 0 -- -- 17
2019-04-13 14:00:00 19.6 8 Sudeste 14 Sur 0 -- -- 22
2019-04-13 13:00:00 17.5 10 Sur 16 Sur 0 -- -- 24
2019-04-13 12:00:00 15.5 6 Sudeste 13 Sur 0 -- -- 24
2019-04-13 11:00:00 11.9 6 Sudeste 18 Noroeste 0 -- -- 34
2019-04-13 10:00:00 6 16 Noroeste 32 Noroeste 0 -- -- 40
2019-04-13 09:00:00 2.8 21 Noroeste 38 Noroeste 0 -- -- 48
2019-04-13 08:00:00 1.5 23 Noroeste 40 Noroeste 0 -- -- 54
2019-04-13 07:00:00 2 26 Noroeste 42 Noroeste 0 -- -- 50
2019-04-13 06:00:00 2.6 25 Noroeste 36 Noroeste 0 -- -- 50
2019-04-13 05:00:00 3.8 21 Noroeste 42 Noroeste 0 -- -- 43
2019-04-13 04:00:00 5.2 21 Noroeste 37 Noroeste 0 -- -- 38
2019-04-13 03:00:00 6.4 26 Noroeste 42 Noroeste 0 -- -- 36
2019-04-13 02:00:00 8.6 19 Noroeste 32 Noroeste 0 -- -- 29
2019-04-13 01:00:00 9.3 18 Noroeste 32 Noroeste 0 -- -- 29
2019-04-13 00:00:00 10.6 17 Noroeste 39 Noroeste 0 -- -- 25
2019-04-12 23:00:00 11.2 16 Nordeste 43 Sudeste 0 -- -- 24
2019-04-12 22:00:00 11.6 10 Norte 34 Noroeste 0 -- -- 26
2019-04-12 21:00:00 12.5 10 Noroeste 39 Noroeste 0 -- -- 25
2019-04-12 20:00:00 13.6 13 Noroeste 32 Noroeste 0 -- -- 25
2019-04-12 19:00:00 14.8 15 Norte 33 Noroeste 0 -- -- 21
2019-04-12 18:00:00 16 17 Noroeste 39 Norte 0 -- -- 18
2019-04-12 17:00:00 16.5 17 Noroeste 36 Norte 0 -- -- 18
2019-04-12 16:00:00 16.7 15 Sur 49 Noroeste 0 -- -- 15
2019-04-12 15:00:00 16.7 17 Noroeste 57 Noroeste 0 -- -- 15
2019-04-12 14:00:00 15.9 26 Noroeste 48 Noroeste 0 -- -- 13
2019-04-12 13:00:00 15.6 21 Noroeste 42 Noroeste 0 -- -- 13
2019-04-12 12:00:00 15.8 7 Sur 17 Sur 0 -- -- 31
2019-04-12 11:00:00 13.6 10 Sur 16 Sur 0 -- -- 39
2019-04-12 10:00:00 9.6 5 Sur 16 Sur 0 -- -- 52
2019-04-12 09:00:00 5.7 3 Norte 8 Norte 0 -- -- 69
2019-04-12 08:00:00 7.3 3 Sur 27 Noroeste 0 -- -- 51
2019-04-12 07:00:00 8.6 6 Norte 26 Noroeste 0 -- -- 43
2019-04-12 06:00:00 8.1 9 Norte 26 Noroeste 0 -- -- 52
2019-04-12 05:00:00 7.9 3 Norte 23 Noroeste 0 -- -- 55
2019-04-12 04:00:00 9.5 10 Norte 39 Noroeste 0 -- -- 48
2019-04-12 03:00:00 10.4 19 Noroeste 54 Noroeste 0 -- -- 45
2019-04-12 02:00:00 9.5 13 Noroeste 28 Noroeste 0 -- -- 52
2019-04-12 01:00:00 9.1 14 Noroeste 31 Noroeste 0 -- -- 54
2019-04-12 00:00:00 9.5 14 Noroeste 32 Noroeste 0 -- -- 52
2019-04-11 23:00:00 10.1 16 Noroeste 34 Noroeste 0 -- -- 50
2019-04-11 22:00:00 10.3 11 Sudeste 39 Sudeste 0 -- -- 47
2019-04-11 21:00:00 10.6 12 Oeste 31 Oeste 0 -- -- 45
2019-04-11 20:00:00 11.3 13 Noroeste 35 Noroeste 0 -- -- 44
2019-04-11 19:00:00 12.1 15 Oeste 36 Norte 0 -- -- 41
2019-04-11 18:00:00 12.6 17 Oeste 44 Oeste 0 -- -- 39
2019-04-11 17:00:00 13.2 17 Oeste 37 Oeste 0 -- -- 37
2019-04-11 16:00:00 13 13 Noroeste 41 Nordeste 0 -- -- 34
2019-04-11 15:00:00 13 12 Oeste 40 Noroeste 0 -- -- 32
2019-04-11 14:00:00 12.5 10 Noroeste 39 Noroeste 0 -- -- 31
2019-04-11 13:00:00 12.3 10 Sudoeste 54 Noroeste 0 -- -- 25
2019-04-11 12:00:00 12.5 17 Noroeste 40 Norte 0 -- -- 26
2019-04-11 11:00:00 11.2 17 Noroeste 39 Noroeste 0 -- -- 29
2019-04-11 10:00:00 10 11 Noroeste 33 Noroeste 0 -- -- 31
2019-04-11 09:00:00 7.6 6 Norte 23 Noroeste 0 -- -- 48
2019-04-11 08:00:00 7.8 9 Norte 34 Noroeste 0 -- -- 41
2019-04-11 07:00:00 8 13 Noroeste 37 Noroeste 0 -- -- 41
2019-04-11 06:00:00 8.3 16 Noroeste 37 Noroeste 0 -- -- 42
2019-04-11 05:00:00 8.4 15 Norte 32 Oeste 0 -- -- 45
2019-04-11 04:00:00 8.1 23 Noroeste 37 Noroeste 0 -- -- 51
2019-04-11 03:00:00 8.3 12 Noroeste 32 Noroeste 0 -- -- 53
2019-04-11 02:00:00 8.7 15 Oeste 37 Noroeste 0 -- -- 51
2019-04-11 01:00:00 9.5 19 Noroeste 36 Noroeste 0 -- -- 47
2019-04-11 00:00:00 9.4 9 Norte 35 Noroeste 0 -- -- 47
2019-04-10 23:00:00 9.9 17 Este 37 Noroeste 0 -- -- 45
2019-04-10 22:00:00 10.2 9 Norte 23 Noroeste 0 -- -- 41
2019-04-10 21:00:00 10.8 16 Norte 45 Noroeste 0 -- -- 39
2019-04-10 20:00:00 11.9 19 Noroeste 45 Norte 0 -- -- 36
2019-04-10 19:00:00 12.8 14 Noroeste 39 Noroeste 0 -- -- 35
2019-04-10 18:00:00 13.1 17 Norte 48 Noroeste 0 -- -- 33
2019-04-10 17:00:00 13.6 14 Noroeste 46 Noroeste 0 -- -- 34
2019-04-10 16:00:00 13.8 21 Norte 49 Noroeste 0 -- -- 34
2019-04-10 15:00:00 15.1 10 Norte 39 Noroeste 0 -- -- 35
2019-04-10 14:00:00 13.2 18 Norte 36 Noroeste 0 -- -- 36
2019-04-10 13:00:00 12.1 11 Norte 25 Noroeste 0 -- -- 44
2019-04-10 12:00:00 11.5 4 Este 22 Noroeste 0 -- -- 70
2019-04-10 11:00:00 5.7 16 Noroeste 39 Noroeste 0 -- -- 83
2019-04-10 10:00:00 3.2 26 Noroeste 37 Noroeste 0 -- -- 91
2019-04-10 09:00:00 2.1 29 Noroeste 40 Noroeste 0 -- -- 93
2019-04-10 08:00:00 2.1 30 Noroeste 38 Noroeste 0 -- -- 92
2019-04-10 07:00:00 2.5 26 Noroeste 41 Noroeste 0 -- -- 92
2019-04-10 06:00:00 2.7 22 Noroeste 35 Noroeste 0 -- -- 91
2019-04-10 05:00:00 3.1 17 Noroeste 29 Noroeste 0 -- -- 91
2019-04-10 04:00:00 3.6 21 Noroeste 31 Noroeste 0 -- -- 90
2019-04-10 03:00:00 4.1 19 Noroeste 34 Noroeste 0 -- -- 89
2019-04-10 02:00:00 4.5 23 Noroeste 34 Noroeste 0.2 -- -- 89
2019-04-10 01:00:00 5.1 22 Noroeste 31 Noroeste 0 -- -- 88
2019-04-10 00:00:00 5.8 15 Norte 29 Noroeste 0 -- -- 85
2019-04-09 23:00:00 6 16 Noroeste 24 Noroeste 0.6 -- -- 84
2019-04-09 22:00:00 6.1 14 Noroeste 19 Noroeste 4 -- -- 88
2019-04-09 21:00:00 6.5 12 Noroeste 20 Noroeste 0.6 -- -- 86
2019-04-09 20:00:00 7.4 16 Norte 27 Noroeste 0 -- -- 76
2019-04-09 19:00:00 6.2 4 Este 30 Noroeste 0 -- -- 85
2019-04-09 18:00:00 6.6 9 Noroeste 28 Noroeste 0.4 -- -- 81
2019-04-09 17:00:00 6 17 Noroeste 28 Noroeste 5.2 -- -- 81
2019-04-09 16:00:00 6.9 21 Noroeste 30 Noroeste 3.4 -- -- 78
2019-04-09 15:00:00 7.8 6 Sudeste 25 Norte 3.4 -- -- 72
2019-04-09 14:00:00 13.9 11 Sur 20 Sur 0.8 -- -- 46
2019-04-09 13:00:00 13.5 8 Sudeste 21 Sudoeste 0 -- -- 52
2019-04-09 12:00:00 13.6 6 Sur 15 Sur 0 -- -- 54
2019-04-09 11:00:00 11.4 6 Sudeste 10 Este 0 -- -- 66
2019-04-09 10:00:00 6.2 9 Noroeste 26 Noroeste 0 -- -- 81
2019-04-09 09:00:00 5.1 13 Noroeste 24 Noroeste 0 -- -- 84
2019-04-09 08:00:00 4.6 14 Noroeste 23 Noroeste 0 -- -- 86
2019-04-09 07:00:00 4.9 15 Noroeste 25 Noroeste 0 -- -- 85
2019-04-09 06:00:00 5.5 9 Noroeste 27 Noroeste 0 -- -- 83
2019-04-09 05:00:00 6 15 Noroeste 30 Noroeste 0 -- -- 81
2019-04-09 04:00:00 6.3 21 Noroeste 27 Noroeste 0 -- -- 79
2019-04-09 03:00:00 6.9 22 Noroeste 32 Noroeste 0 -- -- 76
2019-04-09 02:00:00 7.4 17 Noroeste 28 Noroeste 0 -- -- 76
2019-04-09 01:00:00 8 15 Noroeste 21 Noroeste 0 -- -- 73
2019-04-09 00:00:00 9.2 5 Noroeste 12 Noroeste 0 -- -- 70
2019-04-08 23:00:00 10.3 0 Calma 9 Sudoeste 0 -- -- 64
2019-04-08 22:00:00 11.6 7 Sudoeste 13 Sudoeste 0 -- -- 59
2019-04-08 21:00:00 12.4 3 Sur 9 Sur 0 -- -- 56
2019-04-08 20:00:00 13.5 6 Sudeste 26 Sur 0 -- -- 52
2019-04-08 19:00:00 15.4 9 Sur 27 Sur 0 -- -- 43
2019-04-08 18:00:00 15.5 11 Sur 23 Sur 0 -- -- 44
2019-04-08 17:00:00 15.5 13 Sudoeste 28 Sur 0 -- -- 49
2019-04-08 16:00:00 15.4 10 Sur 32 Sudoeste 0 -- -- 50
2019-04-08 15:00:00 15 7 Sudeste 20 Sudoeste 0 -- -- 49
2019-04-08 14:00:00 14.2 4 Sudoeste 22 Sur 0 -- -- 48
2019-04-08 13:00:00 12.9 10 Sur 18 Sur 0 -- -- 50
2019-04-08 12:00:00 12.2 14 Sur 20 Sur 0 -- -- 55
2019-04-08 11:00:00 9.8 4 Nordeste 23 Noroeste 0 -- -- 65
2019-04-08 10:00:00 6 15 Noroeste 26 Noroeste 0 -- -- 73
2019-04-08 09:00:00 4.1 18 Noroeste 33 Noroeste 0 -- -- 80
2019-04-08 08:00:00 3.3 22 Noroeste 34 Noroeste 0 -- -- 84
2019-04-08 07:00:00 3.2 21 Noroeste 37 Noroeste 0 -- -- 84
2019-04-08 06:00:00 3.1 20 Noroeste 37 Noroeste 0 -- -- 84
2019-04-08 05:00:00 2.9 26 Noroeste 33 Noroeste 0 -- -- 84
2019-04-08 04:00:00 3.3 24 Noroeste 36 Noroeste 0 -- -- 83
2019-04-08 03:00:00 3.8 22 Noroeste 30 Noroeste 0 -- -- 83
2019-04-08 02:00:00 4.5 18 Noroeste 32 Noroeste 0 -- -- 79
2019-04-08 01:00:00 5.2 26 Noroeste 32 Noroeste 0 -- -- 77
2019-04-08 00:00:00 6.1 19 Noroeste 28 Noroeste 0 -- -- 74
2019-04-07 23:00:00 7.1 10 Noroeste 16 Noroeste 0 -- -- 70
2019-04-07 22:00:00 8.3 2 Este 10 Oeste 0 -- -- 65
2019-04-07 21:00:00 9.6 6 Sur 22 Sudoeste 0 -- -- 60
2019-04-07 20:00:00 11.3 15 Sur 29 Sudoeste 0 -- -- 51
2019-04-07 19:00:00 12.3 2 Norte 26 Sudoeste 0 -- -- 43
2019-04-07 18:00:00 12.7 17 Sur 35 Sudoeste 0 -- -- 42
2019-04-07 17:00:00 12.7 17 Sudeste 27 Sudeste 0 -- -- 46
2019-04-07 16:00:00 12.2 13 Sur 24 Sur 0 -- -- 49
2019-04-07 15:00:00 12.4 13 Sur 21 Sur 0 -- -- 51
2019-04-07 14:00:00 11.6 7 Sur 20 Sudoeste 0 -- -- 61
2019-04-07 13:00:00 11.5 10 Sur 18 Sur 0 -- -- 62
2019-04-07 12:00:00 11.2 8 Sudeste 13 Sudeste 0 -- -- 70
2019-04-07 11:00:00 8.2 4 Sudeste 16 Noroeste 0 -- -- 75
2019-04-07 10:00:00 4.6 14 Noroeste 21 Norte 0 -- -- 83
2019-04-07 09:00:00 2.8 3 Este 18 Noroeste 0 -- -- 92
2019-04-07 08:00:00 2.9 7 Noroeste 18 Noroeste 0 -- -- 89
2019-04-07 07:00:00 3.4 13 Noroeste 20 Noroeste 0 -- -- 88
2019-04-07 06:00:00 3.4 12 Norte 20 Noroeste 0 -- -- 91
2019-04-07 05:00:00 3.2 3 Sudeste 9 Sudoeste 0 -- -- 91
2019-04-07 04:00:00 3.5 6 Norte 19 Noroeste 0 -- -- 89
2019-04-07 03:00:00 3.7 10 Noroeste 17 Noroeste 0 -- -- 89
2019-04-07 02:00:00 3.6 12 Norte 20 Noroeste 0 -- -- 90
2019-04-07 01:00:00 3.2 0 Calma 8 Este 1 -- -- 92
2019-04-07 00:00:00 3.9 5 Sudoeste 13 Sudoeste 1.2 -- -- 91
2019-04-06 23:00:00 4 7 Sur 20 Noroeste 0 -- -- 89
2019-04-06 22:00:00 4.5 5 Norte 13 Noroeste 0 -- -- 86
2019-04-06 21:00:00 4.4 5 Este 15 Sudoeste 0 -- -- 86
2019-04-06 20:00:00 4.8 6 Sudoeste 11 Sudoeste 0.8 -- -- 85
2019-04-06 19:00:00 4.8 7 Noroeste 25 Noroeste 0.8 -- -- 83
2019-04-06 18:00:00 5.8 26 Noroeste 53 Noroeste 0.4 -- -- 75
2019-04-06 17:00:00 8.3 4 Sudoeste 19 Sudoeste 0 -- -- 64
2019-04-06 16:00:00 7.5 8 Sudoeste 16 Sur 0 -- -- 71
2019-04-06 15:00:00 5.7 13 Sur 19 Sudoeste 0.2 -- -- 82
2019-04-06 14:00:00 5.6 4 Sudoeste 12 Nordeste 0 -- -- 85
2019-04-06 13:00:00 4.3 4 Sur 13 Sudoeste 0.2 -- -- 93
2019-04-06 12:00:00 2.6 5 Sur 19 Sur 1.6 -- -- 93
2019-04-06 11:00:00 2.5 4 Sudeste 24 Sur 1.4 -- -- 94
2019-04-06 10:00:00 3.1 11 Sur 16 Sudoeste 0.4 -- -- 94
2019-04-06 09:00:00 2.8 6 Sur 14 Sudoeste 0.4 -- -- 94
2019-04-06 08:00:00 2.9 9 Sudoeste 14 Sudoeste 0.2 -- -- 94
2019-04-06 07:00:00 2.8 9 Sudoeste 12 Sur 0.4 -- -- 93
2019-04-06 06:00:00 2.8 0 Calma 16 Noroeste 0 -- -- 91
2019-04-06 05:00:00 2.5 14 Noroeste 21 Noroeste 1.2 -- -- 91
2019-04-06 04:00:00 2.8 10 Este 16 Sudeste 3 -- -- 89
2019-04-06 03:00:00 3.9 9 Noroeste 15 Noroeste 2.2 -- -- 87
2019-04-06 02:00:00 4.8 9 Norte 21 Noroeste 0.8 -- -- 87
2019-04-06 01:00:00 5.2 11 Noroeste 17 Noroeste 1.8 -- -- 88
2019-04-06 00:00:00 5.6 12 Noroeste 15 Noroeste 0.8 -- -- 85
2019-04-05 23:00:00 6.4 8 Oeste 21 Sudoeste 0.6 -- -- 80
2019-04-05 22:00:00 6.6 10 Sudoeste 45 Sur 1 -- -- 78
2019-04-05 21:00:00 7.3 19 Sudoeste 49 Sur 0.6 -- -- 76
2019-04-05 20:00:00 8.7 27 Sur 44 Sur 0 -- -- 69
2019-04-05 19:00:00 9.9 14 Sur 30 Sudoeste 0 -- -- 60
2019-04-05 18:00:00 10.3 8 Sudoeste 18 Sudoeste 0 -- -- 53
2019-04-05 17:00:00 10.1 12 Noroeste 17 Noroeste 0 -- -- 57
2019-04-05 16:00:00 10.1 5 Noroeste 11 Noroeste 0 -- -- 58
2019-04-05 15:00:00 8.7 6 Sudoeste 9 Sur 0 -- -- 64
2019-04-05 14:00:00 7.7 5 Norte 18 Norte 0 -- -- 75
2019-04-05 13:00:00 5.8 14 Noroeste 22 Norte 0 -- -- 78
2019-04-05 12:00:00 4.6 12 Noroeste 20 Noroeste 0.4 -- -- 80
2019-04-05 11:00:00 5.9 0 Calma 20 Noroeste 0 -- -- 64
2019-04-05 10:00:00 4.8 14 Noroeste 27 Oeste 0 -- -- 62
2019-04-05 09:00:00 3.8 19 Noroeste 39 Noroeste 0 -- -- 65
2019-04-05 08:00:00 3.5 25 Noroeste 38 Noroeste 0 -- -- 65
2019-04-05 07:00:00 3.4 21 Noroeste 37 Noroeste 0 -- -- 65
2019-04-05 06:00:00 3.1 19 Noroeste 32 Noroeste 0 -- -- 66
2019-04-05 05:00:00 3.2 26 Noroeste 40 Noroeste 0 -- -- 65
2019-04-05 04:00:00 3.2 29 Noroeste 38 Noroeste 0 -- -- 63
2019-04-05 03:00:00 2.8 20 Noroeste 33 Noroeste 0 -- -- 66
2019-04-05 02:00:00 3.2 17 Noroeste 26 Noroeste 0 -- -- 65
2019-04-05 01:00:00 3.8 2 Sudoeste 27 Noroeste 0 -- -- 61
2019-04-05 00:00:00 5.2 19 Noroeste 35 Noroeste 0 -- -- 54
2019-04-04 23:00:00 5.5 21 Noroeste 30 Noroeste 0 -- -- 54
2019-04-04 22:00:00 6.3 5 Sudeste 11 Sur 0 -- -- 49
2019-04-04 21:00:00 7.5 8 Sudeste 17 Sudeste 0 -- -- 45
2019-04-04 20:00:00 8.9 4 Sur 16 Oeste 0 -- -- 40
2019-04-04 19:00:00 10.5 8 Sur 24 Sudoeste 0 -- -- 35
2019-04-04 18:00:00 11.1 10 Sudoeste 35 Sudeste 0 -- -- 33
2019-04-04 17:00:00 11.1 9 Sudeste 25 Sur 0 -- -- 32
2019-04-04 16:00:00 10.9 12 Sur 21 Sur 0 -- -- 32
2019-04-04 15:00:00 11.1 9 Sur 32 Sur 0 -- -- 31
2019-04-04 14:00:00 10.9 11 Sudeste 26 Sur 0 -- -- 31
2019-04-04 13:00:00 10.1 12 Sur 21 Sur 0 -- -- 41
2019-04-04 12:00:00 8.7 6 Sur 16 Sudeste 0 -- -- 46
2019-04-04 11:00:00 6.7 6 Sudeste 13 Sudeste 0 -- -- 58
2019-04-04 10:00:00 3.8 4 Este 19 Noroeste 0 -- -- 73
2019-04-04 09:00:00 -0.3 13 Noroeste 21 Noroeste 0 -- -- 85
2019-04-04 08:00:00 -1 10 Noroeste 19 Noroeste 0 -- -- 83
2019-04-04 07:00:00 -0.3 13 Noroeste 23 Noroeste 0 -- -- 83
2019-04-04 06:00:00 -0.9 5 Noroeste 17 Noroeste 0 -- -- 84
2019-04-04 05:00:00 -0.3 0 Calma 17 Noroeste 0 -- -- 78
2019-04-04 04:00:00 0.2 3 Sudoeste 11 Sur 0 -- -- 76
2019-04-04 03:00:00 0.9 2 Sudeste 8 Sudoeste 0 -- -- 72
2019-04-04 02:00:00 1.9 5 Sudoeste 12 Sudoeste 0 -- -- 68
2019-04-04 01:00:00 3.2 3 Sur 14 Sur 0 -- -- 63
2019-04-04 00:00:00 4.4 9 Sur 18 Sudoeste 0 -- -- 60
2019-04-03 23:00:00 5 5 Sudeste 30 Sudoeste 0 -- -- 56
2019-04-03 22:00:00 6 4 Este 13 Sudoeste 0 -- -- 56
2019-04-03 21:00:00 7 7 Sudoeste 29 Sur 0 -- -- 52
2019-04-03 20:00:00 7.5 14 Sur 36 Sur 0 -- -- 66
2019-04-03 19:00:00 8.8 11 Sudeste 26 Sur 0 -- -- 55
2019-04-03 18:00:00 8.7 8 Este 22 Sur 0 -- -- 63
2019-04-03 17:00:00 8.4 5 Norte 21 Sur 0 -- -- 68
2019-04-03 16:00:00 9.5 10 Sur 21 Sur 0 -- -- 61
2019-04-03 15:00:00 8.7 4 Nordeste 12 Sudeste 0.2 -- -- 71
2019-04-03 14:00:00 7.8 4 Norte 24 Sur 0.4 -- -- 76
2019-04-03 13:00:00 8.6 5 Sur 15 Sudoeste 0.2 -- -- 75
2019-04-03 12:00:00 9.1 12 Sur 21 Sudoeste 0 -- -- 72
2019-04-03 11:00:00 8.3 9 Este 18 Este 0 -- -- 84
2019-04-03 10:00:00 8 9 Sudoeste 15 Sudoeste 0 -- -- 86
2019-04-03 09:00:00 7.1 5 Sudoeste 9 Noroeste 0 -- -- 90
2019-04-03 08:00:00 7 9 Noroeste 14 Noroeste 0.2 -- -- 87
2019-04-03 07:00:00 7 6 Noroeste 19 Noroeste 0.8 -- -- 85
2019-04-03 06:00:00 7.1 15 Noroeste 24 Norte 0.2 -- -- 83
2019-04-03 05:00:00 7.3 21 Noroeste 32 Noroeste 0 -- -- 80
2019-04-03 04:00:00 7.3 16 Noroeste 29 Noroeste 0 -- -- 78
2019-04-03 03:00:00 7.3 18 Noroeste 27 Noroeste 0 -- -- 78
2019-04-03 02:00:00 7.5 17 Noroeste 31 Noroeste 0 -- -- 76
2019-04-03 01:00:00 7.5 21 Noroeste 29 Noroeste 0 -- -- 76
2019-04-03 00:00:00 8.2 16 Noroeste 27 Noroeste 0 -- -- 74
2019-04-02 23:00:00 9.3 22 Noroeste 27 Noroeste 0 -- -- 69
2019-04-02 22:00:00 11.1 15 Noroeste 24 Noroeste 0 -- -- 62
2019-04-02 21:00:00 12.5 13 Noroeste 16 Noroeste 0 -- -- 57
2019-04-02 20:00:00 13.6 5 Noroeste 8 Noroeste 0 -- -- 53
2019-04-02 19:00:00 14.9 3 Norte 15 Sudeste 0 -- -- 47
2019-04-02 18:00:00 13.7 12 Sur 28 Oeste 0 -- -- 56
2019-04-02 17:00:00 15.4 12 Sur 27 Sur 0 -- -- 44
2019-04-02 16:00:00 15.6 9 Sudeste 33 Sudeste 0 -- -- 39
2019-04-02 15:00:00 14 18 Sur 39 Sudoeste 0 -- -- 43
2019-04-02 14:00:00 16.4 10 Sur 24 Nordeste 0 -- -- 41
2019-04-02 13:00:00 16.7 14 Sur 26 Sur 0 -- -- 49
2019-04-02 12:00:00 14 5 Sudeste 13 Sudoeste 0 -- -- 58
2019-04-02 11:00:00 11.6 8 Sudoeste 16 Sudoeste 0 -- -- 66
2019-04-02 10:00:00 9.3 5 Noroeste 22 Noroeste 0 -- -- 78
2019-04-02 09:00:00 7.7 17 Noroeste 27 Noroeste 0 -- -- 83
2019-04-02 08:00:00 7.7 13 Noroeste 27 Noroeste 0 -- -- 83
2019-04-02 07:00:00 7.6 18 Noroeste 28 Noroeste 0 -- -- 84
2019-04-02 06:00:00 7.6 12 Noroeste 29 Noroeste 0 -- -- 84
2019-04-02 05:00:00 7.8 19 Noroeste 26 Noroeste 0 -- -- 84
2019-04-02 04:00:00 8.1 17 Noroeste 26 Noroeste 0 -- -- 83
2019-04-02 03:00:00 8.8 15 Noroeste 23 Noroeste 0 -- -- 82
2019-04-02 02:00:00 9.2 14 Noroeste 22 Noroeste 0 -- -- 80
2019-04-02 01:00:00 9.6 8 Noroeste 24 Noroeste 0 -- -- 78
2019-04-02 00:00:00 9.9 13 Noroeste 23 Noroeste 0 -- -- 76
2019-04-01 23:00:00 10.7 14 Noroeste 21 Noroeste 0 -- -- 72
2019-04-01 22:00:00 11.6 7 Noroeste 12 Noroeste 0 -- -- 66
2019-04-01 21:00:00 12.4 3 Oeste 10 Sur 0 -- -- 60
2019-04-01 20:00:00 12.9 7 Sur 18 Sur 0 -- -- 58
2019-04-01 19:00:00 14.8 8 Sur 24 Sur 0 -- -- 52
2019-04-01 18:00:00 15.4 13 Sudoeste 28 Sudoeste 0 -- -- 49
2019-04-01 17:00:00 15.5 13 Sur 29 Sur 0 -- -- 48
2019-04-01 16:00:00 16.7 11 Sur 26 Sur 0 -- -- 46
2019-04-01 15:00:00 16.6 6 Sudeste 22 Sudoeste 0 -- -- 48
2019-04-01 14:00:00 16.5 9 Sur 23 Sur 0 -- -- 51
2019-04-01 13:00:00 15.2 9 Sur 14 Sudoeste 0 -- -- 50
2019-04-01 12:00:00 15.3 8 Sur 14 Noroeste 0 -- -- 52
2019-04-01 11:00:00 10.9 13 Noroeste 29 Noroeste 0 -- -- 63
2019-04-01 10:00:00 8.7 18 Noroeste 28 Noroeste 0 -- -- 70
2019-04-01 09:00:00 7.8 17 Noroeste 29 Noroeste 0 -- -- 73
2019-04-01 08:00:00 7.6 14 Noroeste 21 Noroeste 0 -- -- 73
2019-04-01 07:00:00 7.8 6 Noroeste 32 Noroeste 0 -- -- 71
2019-04-01 06:00:00 7.8 23 Noroeste 32 Noroeste 0 -- -- 71
2019-04-01 05:00:00 7.9 18 Noroeste 27 Noroeste 0 -- -- 70
2019-04-01 04:00:00 8.1 17 Noroeste 24 Noroeste 0 -- -- 71
2019-04-01 03:00:00 8.4 13 Noroeste 18 Noroeste 0 -- -- 71
2019-04-01 02:00:00 8.6 8 Noroeste 15 Noroeste 0 -- -- 70
2019-04-01 01:00:00 9 8 Noroeste 11 Noroeste 0 -- -- 67
2019-04-01 00:00:00 9.6 6 Noroeste 14 Noroeste 0 -- -- 65
2019-03-31 23:00:00 10.3 8 Noroeste 11 Oeste 0 -- -- 61
2019-03-31 22:00:00 10.5 3 Sudeste 6 Este 0 -- -- 60
2019-03-31 21:00:00 11.7 4 Sudoeste 11 Sudeste 0 -- -- 56
2019-03-31 20:00:00 12.6 8 Sur 17 Sur 0 -- -- 50
2019-03-31 19:00:00 13.5 11 Sudoeste 18 Sudoeste 0 -- -- 46
2019-03-31 18:00:00 14.7 13 Sur 18 Sudoeste 0 -- -- 35
2019-03-31 17:00:00 14.9 8 Sur 20 Sudoeste 0 -- -- 30
2019-03-31 16:00:00 14.8 5 Sur 21 Sudoeste 0 -- -- 33
2019-03-31 15:00:00 15.1 10 Sur 21 Sudoeste 0 -- -- 38
2019-03-31 14:00:00 14.8 8 Sur 16 Sur 0 -- -- 42
2019-03-31 13:00:00 12.5 6 Sudeste 12 Sur 0 -- -- 49
2019-03-31 12:00:00 11.1 9 Sur 14 Noroeste 0 -- -- 52
2019-03-31 11:00:00 7.4 5 Norte 36 Noroeste 0 -- -- 60
2019-03-31 10:00:00 4.1 18 Noroeste 41 Noroeste 0 -- -- 71
2019-03-31 09:00:00 2.6 28 Noroeste 45 Noroeste 0 -- -- 78
2019-03-31 08:00:00 2.3 37 Noroeste 52 Noroeste 0 -- -- 78
2019-03-31 07:00:00 2.8 32 Noroeste 47 Noroeste 0 -- -- 77
2019-03-31 06:00:00 3.1 32 Noroeste 44 Noroeste 0 -- -- 76
2019-03-31 05:00:00 3.7 31 Noroeste 45 Noroeste 0 -- -- 74
2019-03-31 03:00:00 5.1 26 Noroeste 36 Noroeste 0 -- -- 71
2019-03-31 01:00:00 5.8 17 Noroeste 30 Noroeste 0 -- -- 67
2019-03-31 00:00:00 6.7 19 Noroeste 26 Noroeste 0 -- -- 65
2019-03-30 23:00:00 7.7 5 Noroeste 17 Noroeste 0 -- -- 61
2019-03-30 22:00:00 8.9 9 Noroeste 12 Noroeste 0 -- -- 57
2019-03-30 21:00:00 10.5 3 Oeste 8 Noroeste 0 -- -- 49
2019-03-30 20:00:00 12.1 4 Sudeste 23 Sudoeste 0 -- -- 42
2019-03-30 19:00:00 13.7 11 Sur 22 Sudoeste 0 -- -- 38
2019-03-30 18:00:00 14.9 10 Sur 23 Sur 0 -- -- 37
2019-03-30 17:00:00 16 16 Sur 26 Sur 0 -- -- 36
2019-03-30 16:00:00 16.6 9 Sur 30 Sur 0 -- -- 32
2019-03-30 15:00:00 16.8 8 Sur 29 Sur 0 -- -- 31
2019-03-30 14:00:00 16.5 12 Sudeste 24 Sudoeste 0 -- -- 36
2019-03-30 13:00:00 15.4 10 Sur 20 Sudoeste 0 -- -- 37
2019-03-30 12:00:00 14.6 9 Sur 17 Sur 0 -- -- 42
2019-03-30 11:00:00 13.3 7 Sur 13 Sur 0 -- -- 48
2019-03-30 10:00:00 7.2 11 Noroeste 30 Noroeste 0 -- -- 61
2019-03-30 09:00:00 4 17 Noroeste 37 Noroeste 0 -- -- 74
2019-03-30 08:00:00 2.1 29 Noroeste 40 Noroeste 0 -- -- 81
2019-03-30 07:00:00 1.8 27 Noroeste 37 Noroeste 0 -- -- 83
2019-03-30 06:00:00 2.4 27 Noroeste 37 Noroeste 0 -- -- 79
2019-03-30 05:00:00 2.8 27 Noroeste 37 Noroeste 0 -- -- 78
2019-03-30 04:00:00 2.9 26 Noroeste 35 Noroeste 0 -- -- 78
2019-03-30 03:00:00 3.7 18 Noroeste 30 Noroeste 0 -- -- 76
2019-03-30 02:00:00 4.3 20 Noroeste 27 Noroeste 0 -- -- 75
2019-03-30 01:00:00 5.2 15 Noroeste 24 Noroeste 0 -- -- 71
2019-03-30 00:00:00 6.1 14 Noroeste 26 Noroeste 0 -- -- 67
2019-03-29 23:00:00 7.4 9 Noroeste 27 Noroeste 0 -- -- 62
2019-03-29 22:00:00 8.6 12 Noroeste 19 Noroeste 0 -- -- 58
2019-03-29 21:00:00 10 6 Sudoeste 18 Sudoeste 0 -- -- 53
2019-03-29 20:00:00 11.2 5 Sur 20 Sudoeste 0 -- -- 48
2019-03-29 19:00:00 12.8 10 Sudoeste 23 Sudoeste 0 -- -- 42
2019-03-29 18:00:00 13.8 4 Sur 15 Sudoeste 0 -- -- 40
2019-03-29 17:00:00 14.3 7 Sur 12 Sur 0 -- -- 39
2019-03-29 16:00:00 13.7 3 Sudoeste 23 Sur 0 -- -- 40
2019-03-29 15:00:00 14.2 8 Este 17 Sur 0 -- -- 39
2019-03-29 14:00:00 14.4 8 Sur 22 Sur 0 -- -- 40
2019-03-29 13:00:00 13.4 13 Sur 23 Sur 0 -- -- 43
2019-03-29 12:00:00 13.1 10 Sur 16 Sur 0 -- -- 43
2019-03-29 11:00:00 11.2 2 Nordeste 15 Noroeste 0 -- -- 53
2019-03-29 10:00:00 8.6 13 Noroeste 30 Noroeste 0 -- -- 58
2019-03-29 09:00:00 6.3 22 Noroeste 35 Noroeste 0 -- -- 64
2019-03-29 08:00:00 4.9 27 Noroeste 35 Noroeste 0 -- -- 70
2019-03-29 07:00:00 4.6 24 Noroeste 37 Noroeste 0 -- -- 70
2019-03-29 06:00:00 4.2 26 Noroeste 36 Noroeste 0 -- -- 72
2019-03-29 05:00:00 4 23 Noroeste 35 Noroeste 0 -- -- 72
2019-03-29 04:00:00 4.2 18 Noroeste 32 Noroeste 0 -- -- 72
2019-03-29 03:00:00 4.7 19 Noroeste 32 Noroeste 0 -- -- 70
2019-03-29 02:00:00 5.3 23 Noroeste 33 Noroeste 0 -- -- 67
2019-03-29 01:00:00 6.1 14 Noroeste 31 Noroeste 0 -- -- 64
2019-03-29 00:00:00 7 17 Noroeste 27 Noroeste 0 -- -- 62
2019-03-28 23:00:00 8 13 Noroeste 19 Noroeste 0 -- -- 59
2019-03-28 22:00:00 9.2 12 Noroeste 18 Noroeste 0 -- -- 55
2019-03-28 21:00:00 10.1 2 Sudeste 7 Sudoeste 0 -- -- 49
2019-03-28 20:00:00 11.6 5 Sudeste 8 Sudeste 0 -- -- 46
2019-03-28 19:00:00 13.5 9 Sur 22 Sur 0 -- -- 42
2019-03-28 18:00:00 14.9 13 Sur 26 Sur 0 -- -- 40
2019-03-28 17:00:00 16.1 14 Sur 26 Sudoeste 0 -- -- 38
2019-03-28 16:00:00 16.9 11 Sudoeste 30 Sur 0 -- -- 37
2019-03-28 15:00:00 17.1 19 Sur 31 Sur 0 -- -- 33
2019-03-28 14:00:00 17.2 14 Sur 26 Sudoeste 0 -- -- 33
2019-03-28 13:00:00 16.9 12 Sur 19 Sur 0 -- -- 32
2019-03-28 12:00:00 15.6 10 Sur 16 Sur 0 -- -- 31
2019-03-28 11:00:00 14.5 8 Sudeste 13 Sudeste 0 -- -- 31
2019-03-28 10:00:00 7.8 9 Noroeste 30 Noroeste 0 -- -- 38
2019-03-28 09:00:00 4 25 Noroeste 43 Noroeste 0 -- -- 49
2019-03-28 08:00:00 1.7 30 Noroeste 42 Noroeste 0 -- -- 58
2019-03-28 07:00:00 1.7 30 Noroeste 41 Noroeste 0 -- -- 58
2019-03-28 06:00:00 2.2 27 Noroeste 38 Noroeste 0 -- -- 58
2019-03-28 05:00:00 2.9 24 Noroeste 36 Noroeste 0 -- -- 54
2019-03-28 04:00:00 3.7 29 Noroeste 39 Noroeste 0 -- -- 52
2019-03-28 03:00:00 4.8 28 Noroeste 37 Noroeste 0 -- -- 47
2019-03-28 02:00:00 5.7 22 Noroeste 33 Oeste 0 -- -- 46
2019-03-28 01:00:00 7 22 Noroeste 37 Noroeste 0 -- -- 43
2019-03-28 00:00:00 8.1 14 Noroeste 22 Noroeste 0 -- -- 41
2019-03-27 23:00:00 9.5 14 Noroeste 26 Noroeste 0 -- -- 36
2019-03-27 22:00:00 10.4 15 Noroeste 25 Noroeste 0 -- -- 35
2019-03-27 21:00:00 11.9 8 Norte 13 Noroeste 0 -- -- 29
2019-03-27 20:00:00 12.8 2 Sudoeste 8 Sudeste 0 -- -- 45
2019-03-27 19:00:00 14.1 2 Norte 20 Sur 0 -- -- 41
2019-03-27 18:00:00 15.6 9 Sur 27 Sur 0 -- -- 37
2019-03-27 17:00:00 16.8 15 Sur 28 Sur 0 -- -- 30
2019-03-27 16:00:00 18.2 15 Sur 30 Sur 0 -- -- 27
2019-03-27 15:00:00 18.5 10 Sur 22 Sur 0 -- -- 22
2019-03-27 14:00:00 17.2 8 Sur 19 Sudoeste 0 -- -- 22
2019-03-27 13:00:00 16.3 9 Sur 19 Sur 0 -- -- 21
2019-03-27 12:00:00 15.6 6 Sudeste 13 Sur 0 -- -- 27
2019-03-27 11:00:00 13.5 7 Sudeste 14 Sur 0 -- -- 27
2019-03-27 10:00:00 6.8 6 Noroeste 32 Noroeste 0 -- -- 29
2019-03-27 09:00:00 3.2 23 Noroeste 40 Noroeste 0 -- -- 35
2019-03-27 08:00:00 0.7 27 Noroeste 41 Noroeste 0 -- -- 45
2019-03-27 07:00:00 0.8 25 Noroeste 39 Noroeste 0 -- -- 44
2019-03-27 06:00:00 0.9 29 Noroeste 40 Noroeste 0 -- -- 45
2019-03-27 05:00:00 1.6 23 Noroeste 35 Noroeste 0 -- -- 42
2019-03-27 04:00:00 2.6 17 Noroeste 37 Noroeste 0 -- -- 38
2019-03-27 03:00:00 3.4 20 Noroeste 37 Noroeste 0 -- -- 36
2019-03-27 02:00:00 4.4 24 Noroeste 36 Noroeste 0 -- -- 32
2019-03-27 01:00:00 5.8 22 Noroeste 35 Noroeste 0 -- -- 27
2019-03-27 00:00:00 8.1 21 Noroeste 31 Noroeste 0 -- -- 22